createdAt,value
2017-09-25T00:00:01.072Z,11.95
2017-09-25T00:00:41.598Z,11.91
2017-09-25T00:01:22.112Z,11.96
2017-09-25T00:02:02.635Z,11.94
2017-09-25T00:02:43.170Z,11.91
2017-09-25T00:03:23.704Z,11.9
2017-09-25T00:04:04.237Z,11.95
2017-09-25T00:04:44.781Z,11.91
2017-09-25T00:05:25.314Z,11.85
2017-09-25T00:06:05.846Z,11.91
2017-09-25T00:06:46.380Z,11.76
2017-09-25T00:07:26.918Z,11.79
2017-09-25T00:08:07.459Z,11.78
2017-09-25T00:08:47.991Z,11.83
2017-09-25T00:09:28.579Z,11.76
2017-09-25T00:10:09.110Z,11.83
2017-09-25T00:10:49.647Z,11.73
2017-09-25T00:11:30.192Z,11.72
2017-09-25T00:12:10.721Z,11.75
2017-09-25T00:12:51.255Z,11.73
2017-09-25T00:13:31.788Z,11.76
2017-09-25T00:14:12.320Z,11.69
2017-09-25T00:14:52.847Z,11.72
2017-09-25T00:15:33.392Z,11.62
2017-09-25T00:16:13.928Z,11.62
2017-09-25T00:16:54.459Z,11.57
2017-09-25T00:17:34.991Z,11.6
2017-09-25T00:18:15.526Z,11.55
2017-09-25T00:18:56.065Z,11.61
2017-09-25T00:19:36.601Z,11.52
2017-09-25T00:20:17.131Z,11.52
2017-09-25T00:20:57.656Z,11.57
2017-09-25T00:21:38.181Z,11.49
2017-09-25T00:22:18.719Z,11.49
2017-09-25T00:22:59.245Z,11.49
2017-09-25T00:23:39.787Z,11.57
2017-09-25T00:24:20.325Z,11.54
2017-09-25T00:25:00.858Z,11.52
2017-09-25T00:25:41.392Z,11.54
2017-09-25T00:26:21.912Z,11.57
2017-09-25T00:27:02.448Z,11.65
2017-09-25T00:27:42.967Z,11.55
2017-09-25T00:28:23.496Z,11.54
2017-09-25T00:29:04.013Z,11.54
2017-09-25T00:29:44.537Z,11.49
2017-09-25T00:30:25.057Z,11.49
2017-09-25T00:31:05.573Z,11.55
2017-09-25T00:31:46.093Z,11.61
2017-09-25T00:32:26.621Z,11.52
2017-09-25T00:33:07.159Z,11.49
2017-09-25T00:33:47.685Z,11.49
2017-09-25T00:34:28.227Z,11.52
2017-09-25T00:35:08.762Z,11.36
2017-09-25T00:35:49.289Z,11.42
2017-09-25T00:36:29.819Z,11.43
2017-09-25T00:37:10.351Z,11.44
2017-09-25T00:37:50.879Z,11.43
2017-09-25T00:38:31.413Z,11.43
2017-09-25T00:39:11.948Z,11.42
2017-09-25T00:39:52.480Z,11.39
2017-09-25T00:40:33.001Z,11.39
2017-09-25T00:41:13.530Z,11.43
2017-09-25T00:41:54.059Z,11.46
2017-09-25T00:42:34.627Z,11.49
2017-09-25T00:43:15.134Z,11.44
2017-09-25T00:43:55.735Z,11.52
2017-09-25T00:44:36.272Z,11.52
2017-09-25T00:45:16.777Z,11.43
2017-09-25T00:45:57.310Z,11.4
2017-09-25T00:46:37.845Z,11.52
2017-09-25T00:47:18.390Z,11.51
2017-09-25T00:47:58.927Z,11.4
2017-09-25T00:48:39.463Z,11.57
2017-09-25T00:49:19.999Z,11.57
2017-09-25T00:50:00.531Z,11.46
2017-09-25T00:50:41.062Z,11.49
2017-09-25T00:51:21.602Z,11.49
2017-09-25T00:52:02.140Z,11.51
2017-09-25T00:52:42.674Z,11.42
2017-09-25T00:53:23.209Z,11.52
2017-09-25T00:54:03.745Z,11.52
2017-09-25T00:54:44.273Z,11.52
2017-09-25T00:55:24.813Z,11.52
2017-09-25T00:56:05.350Z,11.49
2017-09-25T00:56:45.889Z,11.61
2017-09-25T00:57:26.429Z,11.51
2017-09-25T00:58:06.959Z,11.55
2017-09-25T00:58:47.488Z,11.51
2017-09-25T00:59:28.029Z,11.51
2017-09-25T01:00:08.560Z,11.54
2017-09-25T01:00:49.095Z,11.57
2017-09-25T01:01:29.626Z,11.52
2017-09-25T01:02:10.161Z,11.57
2017-09-25T01:02:50.691Z,11.52
2017-09-25T01:03:31.277Z,11.49
2017-09-25T01:04:11.750Z,11.43
2017-09-25T01:04:52.282Z,11.44
2017-09-25T01:05:32.816Z,11.4
2017-09-25T01:06:13.348Z,11.42
2017-09-25T01:06:53.875Z,11.4
2017-09-25T01:07:34.404Z,11.43
2017-09-25T01:08:14.902Z,11.4
2017-09-25T01:08:55.455Z,11.39
2017-09-25T01:09:35.972Z,11.42
2017-09-25T01:10:16.500Z,11.44
2017-09-25T01:10:57.028Z,11.43
2017-09-25T01:11:37.543Z,11.42
2017-09-25T01:12:18.075Z,11.4
2017-09-25T01:12:58.612Z,11.36
2017-09-25T01:13:39.116Z,11.37
2017-09-25T01:14:19.632Z,11.42
2017-09-25T01:15:00.163Z,11.43
2017-09-25T01:15:40.703Z,11.37
2017-09-25T01:16:21.223Z,11.33
2017-09-25T01:17:01.742Z,11.37
2017-09-25T01:17:42.268Z,11.37
2017-09-25T01:18:22.806Z,11.37
2017-09-25T01:19:03.331Z,11.36
2017-09-25T01:19:43.845Z,11.36
2017-09-25T01:20:24.401Z,11.37
2017-09-25T01:21:04.890Z,11.4
2017-09-25T01:21:45.426Z,11.37
2017-09-25T01:22:25.950Z,11.4
2017-09-25T01:23:06.485Z,11.39
2017-09-25T01:23:47.086Z,11.36
2017-09-25T01:24:27.620Z,11.35
2017-09-25T01:25:08.140Z,11.33
2017-09-25T01:25:48.674Z,11.32
2017-09-25T01:26:29.212Z,11.28
2017-09-25T01:27:09.745Z,11.36
2017-09-25T01:27:50.272Z,11.35
2017-09-25T01:28:30.805Z,11.29
2017-09-25T01:29:11.337Z,11.36
2017-09-25T01:29:51.874Z,11.35
2017-09-25T01:30:32.405Z,11.35
2017-09-25T01:31:12.937Z,11.32
2017-09-25T01:31:53.443Z,11.35
2017-09-25T01:32:33.977Z,11.28
2017-09-25T01:33:14.513Z,11.36
2017-09-25T01:33:55.050Z,11.36
2017-09-25T01:34:35.585Z,11.32
2017-09-25T01:35:16.124Z,11.36
2017-09-25T01:35:56.654Z,11.36
2017-09-25T01:36:37.190Z,11.28
2017-09-25T01:37:17.727Z,11.35
2017-09-25T01:37:58.256Z,11.32
2017-09-25T01:38:38.796Z,11.29
2017-09-25T01:39:19.331Z,11.32
2017-09-25T01:39:59.860Z,11.33
2017-09-25T01:40:40.392Z,11.39
2017-09-25T01:41:20.934Z,11.29
2017-09-25T01:42:01.476Z,11.28
2017-09-25T01:42:42.008Z,11.37
2017-09-25T01:43:22.576Z,11.44
2017-09-25T01:44:03.114Z,11.35
2017-09-25T01:44:43.644Z,11.36
2017-09-25T01:45:24.170Z,11.32
2017-09-25T01:46:04.707Z,11.32
2017-09-25T01:46:45.241Z,11.28
2017-09-25T01:47:25.779Z,11.36
2017-09-25T01:48:06.329Z,11.35
2017-09-25T01:48:46.860Z,11.33
2017-09-25T01:49:27.398Z,11.32
2017-09-25T01:50:07.933Z,11.32
2017-09-25T01:50:48.467Z,11.35
2017-09-25T01:51:29.001Z,11.27
2017-09-25T01:52:09.550Z,11.25
2017-09-25T01:52:50.072Z,11.24
2017-09-25T01:53:30.600Z,11.27
2017-09-25T01:54:11.126Z,11.33
2017-09-25T01:54:51.653Z,11.32
2017-09-25T01:55:32.185Z,11.24
2017-09-25T01:56:12.721Z,11.25
2017-09-25T01:56:53.259Z,11.29
2017-09-25T01:57:33.801Z,11.21
2017-09-25T01:58:14.319Z,11.24
2017-09-25T01:58:54.853Z,11.28
2017-09-25T01:59:35.376Z,11.19
2017-09-25T02:00:15.893Z,11.27
2017-09-25T02:00:56.424Z,11.22
2017-09-25T02:01:36.958Z,11.15
2017-09-25T02:02:17.493Z,11.19
2017-09-25T02:02:58.023Z,11.15
2017-09-25T02:03:38.564Z,11.15
2017-09-25T02:04:19.101Z,11.21
2017-09-25T02:04:59.631Z,11.22
2017-09-25T02:05:40.163Z,11.22
2017-09-25T02:06:20.712Z,11.22
2017-09-25T02:07:01.241Z,11.22
2017-09-25T02:07:41.781Z,11.1
2017-09-25T02:08:22.330Z,11.21
2017-09-25T02:09:02.832Z,11.09
2017-09-25T02:09:43.365Z,11.18
2017-09-25T02:10:23.894Z,11.06
2017-09-25T02:11:04.430Z,11.19
2017-09-25T02:11:44.966Z,11.19
2017-09-25T02:12:25.513Z,11.03
2017-09-25T02:13:06.037Z,11.14
2017-09-25T02:13:46.555Z,11.17
2017-09-25T02:14:27.090Z,11.14
2017-09-25T02:15:07.605Z,11.14
2017-09-25T02:15:48.129Z,11.02
2017-09-25T02:16:28.660Z,11.11
2017-09-25T02:17:09.173Z,11.1
2017-09-25T02:17:49.702Z,11.1
2017-09-25T02:18:30.226Z,11.07
2017-09-25T02:19:10.761Z,11.07
2017-09-25T02:19:51.285Z,11.03
2017-09-25T02:20:31.803Z,11.06
2017-09-25T02:21:12.342Z,11.04
2017-09-25T02:21:52.871Z,11.04
2017-09-25T02:22:33.404Z,11.04
2017-09-25T02:23:13.936Z,10.96
2017-09-25T02:23:54.463Z,10.97
2017-09-25T02:24:34.987Z,11
2017-09-25T02:25:15.510Z,11
2017-09-25T02:25:56.094Z,10.89
2017-09-25T02:26:36.627Z,10.91
2017-09-25T02:27:17.140Z,10.89
2017-09-25T02:27:57.669Z,10.85
2017-09-25T02:28:38.185Z,10.89
2017-09-25T02:29:18.733Z,10.85
2017-09-25T02:29:59.258Z,10.89
2017-09-25T02:30:39.752Z,10.88
2017-09-25T02:31:20.277Z,10.81
2017-09-25T02:32:00.793Z,10.86
2017-09-25T02:32:41.334Z,10.79
2017-09-25T02:33:21.869Z,10.85
2017-09-25T02:34:02.399Z,10.79
2017-09-25T02:34:42.914Z,10.85
2017-09-25T02:35:23.459Z,10.81
2017-09-25T02:36:03.978Z,10.79
2017-09-25T02:36:44.502Z,10.82
2017-09-25T02:37:25.029Z,10.81
2017-09-25T02:38:05.561Z,10.73
2017-09-25T02:38:46.091Z,10.78
2017-09-25T02:39:26.610Z,10.76
2017-09-25T02:40:07.131Z,10.82
2017-09-25T02:40:47.659Z,10.89
2017-09-25T02:41:28.193Z,10.81
2017-09-25T02:42:08.728Z,10.85
2017-09-25T02:42:49.255Z,10.81
2017-09-25T02:43:29.784Z,10.76
2017-09-25T02:44:10.324Z,10.82
2017-09-25T02:44:50.853Z,10.82
2017-09-25T02:45:31.375Z,10.85
2017-09-25T02:46:11.904Z,10.81
2017-09-25T02:46:52.442Z,10.81
2017-09-25T02:47:32.957Z,10.82
2017-09-25T02:48:13.475Z,10.88
2017-09-25T02:48:54.002Z,10.86
2017-09-25T02:49:34.536Z,10.88
2017-09-25T02:50:15.075Z,10.86
2017-09-25T02:50:55.615Z,10.84
2017-09-25T02:51:36.130Z,10.85
2017-09-25T02:52:16.654Z,10.88
2017-09-25T02:52:57.180Z,10.85
2017-09-25T02:53:37.717Z,10.91
2017-09-25T02:54:18.255Z,10.89
2017-09-25T02:54:58.787Z,10.91
2017-09-25T02:55:39.324Z,10.88
2017-09-25T02:56:19.858Z,10.85
2017-09-25T02:57:00.391Z,10.91
2017-09-25T02:57:40.922Z,10.84
2017-09-25T02:58:21.457Z,10.86
2017-09-25T02:59:01.988Z,10.81
2017-09-25T02:59:42.517Z,10.82
2017-09-25T03:00:23.045Z,10.85
2017-09-25T03:01:03.583Z,10.91
2017-09-25T03:01:44.125Z,10.86
2017-09-25T03:02:24.663Z,10.99
2017-09-25T03:03:05.195Z,10.94
2017-09-25T03:03:45.732Z,10.92
2017-09-25T03:04:26.260Z,10.97
2017-09-25T03:05:06.797Z,10.94
2017-09-25T03:05:47.325Z,10.97
2017-09-25T03:06:27.852Z,10.94
2017-09-25T03:07:08.369Z,11.03
2017-09-25T03:07:48.899Z,11
2017-09-25T03:08:29.442Z,10.99
2017-09-25T03:09:09.973Z,10.97
2017-09-25T03:09:50.512Z,11.03
2017-09-25T03:10:31.056Z,11
2017-09-25T03:11:11.579Z,11.06
2017-09-25T03:11:52.093Z,11
2017-09-25T03:12:32.632Z,11.03
2017-09-25T03:13:13.168Z,11.06
2017-09-25T03:13:53.703Z,11
2017-09-25T03:14:34.223Z,11.06
2017-09-25T03:15:14.769Z,11.03
2017-09-25T03:15:55.266Z,11
2017-09-25T03:16:35.802Z,11
2017-09-25T03:17:16.314Z,11.03
2017-09-25T03:17:56.832Z,11.03
2017-09-25T03:18:37.387Z,11.06
2017-09-25T03:19:17.917Z,10.99
2017-09-25T03:19:58.431Z,11.04
2017-09-25T03:20:38.974Z,11
2017-09-25T03:21:19.496Z,10.99
2017-09-25T03:22:00.027Z,11.02
2017-09-25T03:22:40.562Z,11.02
2017-09-25T03:23:21.080Z,10.97
2017-09-25T03:24:01.612Z,10.94
2017-09-25T03:24:42.134Z,10.99
2017-09-25T03:25:22.648Z,11.03
2017-09-25T03:26:03.168Z,11.02
2017-09-25T03:26:43.708Z,10.97
2017-09-25T03:27:24.214Z,11
2017-09-25T03:28:04.749Z,10.96
2017-09-25T03:28:45.279Z,11
2017-09-25T03:29:25.795Z,10.94
2017-09-25T03:30:06.332Z,10.91
2017-09-25T03:30:46.835Z,10.99
2017-09-25T03:31:28.127Z,10.94
2017-09-25T03:32:08.650Z,10.89
2017-09-25T03:32:49.186Z,10.99
2017-09-25T03:33:29.721Z,10.86
2017-09-25T03:34:10.249Z,10.96
2017-09-25T03:34:50.785Z,10.85
2017-09-25T03:35:31.694Z,10.85
2017-09-25T03:36:12.580Z,10.88
2017-09-25T03:36:53.098Z,10.89
2017-09-25T03:37:33.622Z,10.86
2017-09-25T03:38:14.202Z,10.88
2017-09-25T03:38:54.720Z,10.86
2017-09-25T03:39:35.244Z,10.81
2017-09-25T03:40:15.766Z,10.82
2017-09-25T03:40:56.303Z,10.73
2017-09-25T03:41:36.814Z,10.79
2017-09-25T03:42:17.335Z,10.74
2017-09-25T03:42:57.868Z,10.73
2017-09-25T03:43:38.385Z,10.76
2017-09-25T03:44:18.926Z,10.76
2017-09-25T03:44:59.460Z,10.81
2017-09-25T03:45:40.013Z,10.73
2017-09-25T03:46:20.560Z,10.81
2017-09-25T03:47:01.093Z,10.78
2017-09-25T03:47:41.613Z,10.76
2017-09-25T03:48:22.157Z,10.73
2017-09-25T03:49:02.663Z,10.76
2017-09-25T03:49:43.191Z,10.74
2017-09-25T03:50:23.711Z,10.79
2017-09-25T03:51:04.250Z,10.74
2017-09-25T03:51:44.781Z,10.76
2017-09-25T03:52:25.313Z,10.68
2017-09-25T03:53:05.839Z,10.76
2017-09-25T03:53:46.381Z,10.76
2017-09-25T03:54:26.914Z,10.78
2017-09-25T03:55:07.448Z,10.79
2017-09-25T03:55:47.990Z,10.81
2017-09-25T03:56:28.522Z,10.79
2017-09-25T03:57:09.053Z,10.79
2017-09-25T03:57:49.585Z,10.86
2017-09-25T03:58:30.122Z,10.85
2017-09-25T03:59:10.658Z,10.85
2017-09-25T03:59:51.188Z,10.88
2017-09-25T04:00:31.721Z,10.89
2017-09-25T04:01:12.251Z,10.84
2017-09-25T04:01:52.783Z,10.88
2017-09-25T04:02:33.294Z,10.88
2017-09-25T04:03:15.258Z,10.91
2017-09-25T04:03:57.157Z,10.88
2017-09-25T04:04:39.132Z,10.82
2017-09-25T04:05:21.601Z,10.81
2017-09-25T04:06:04.032Z,10.94
2017-09-25T04:06:46.543Z,10.96
2017-09-25T04:07:27.853Z,10.92
2017-09-25T04:08:08.383Z,10.99
2017-09-25T04:08:48.926Z,10.94
2017-09-25T04:09:29.458Z,10.94
2017-09-25T04:10:09.996Z,10.92
2017-09-25T04:10:50.564Z,11.02
2017-09-25T04:11:31.108Z,10.99
2017-09-25T04:12:11.644Z,10.97
2017-09-25T04:12:52.163Z,11.04
2017-09-25T04:13:32.690Z,11.03
2017-09-25T04:14:13.204Z,10.96
2017-09-25T04:14:53.694Z,10.96
2017-09-25T04:15:34.227Z,10.99
2017-09-25T04:16:14.757Z,10.99
2017-09-25T04:16:55.282Z,11
2017-09-25T04:17:35.817Z,11.03
2017-09-25T04:18:16.352Z,10.94
2017-09-25T04:18:56.873Z,11.04
2017-09-25T04:19:37.403Z,11.03
2017-09-25T04:20:17.916Z,10.99
2017-09-25T04:20:58.448Z,11.04
2017-09-25T04:21:38.980Z,11.04
2017-09-25T04:22:19.553Z,10.99
2017-09-25T04:23:00.070Z,11.04
2017-09-25T04:23:40.589Z,11.02
2017-09-25T04:24:21.124Z,11
2017-09-25T04:25:01.664Z,11.09
2017-09-25T04:25:42.177Z,11
2017-09-25T04:26:22.693Z,11.06
2017-09-25T04:27:03.216Z,11
2017-09-25T04:27:43.738Z,11.03
2017-09-25T04:28:24.242Z,11
2017-09-25T04:29:04.749Z,11.06
2017-09-25T04:29:45.326Z,11
2017-09-25T04:30:25.842Z,10.99
2017-09-25T04:31:07.961Z,11.03
2017-09-25T04:31:48.477Z,11.03
2017-09-25T04:32:29.007Z,10.96
2017-09-25T04:33:10.823Z,11.02
2017-09-25T04:33:52.942Z,10.97
2017-09-25T04:34:34.660Z,10.96
2017-09-25T04:35:16.867Z,10.94
2017-09-25T04:35:58.984Z,10.96
2017-09-25T04:36:41.188Z,10.91
2017-09-25T04:37:21.706Z,10.94
2017-09-25T04:38:02.203Z,10.85
2017-09-25T04:38:42.722Z,10.99
2017-09-25T04:39:23.245Z,10.89
2017-09-25T04:40:03.750Z,10.82
2017-09-25T04:40:44.295Z,10.96
2017-09-25T04:41:24.789Z,10.91
2017-09-25T04:42:05.317Z,10.96
2017-09-25T04:42:45.829Z,10.92
2017-09-25T04:43:26.361Z,10.96
2017-09-25T04:44:06.890Z,10.88
2017-09-25T04:44:47.426Z,10.92
2017-09-25T04:45:27.953Z,10.85
2017-09-25T04:46:08.493Z,10.86
2017-09-25T04:46:49.018Z,10.89
2017-09-25T04:47:29.540Z,10.85
2017-09-25T04:48:11.425Z,10.88
2017-09-25T04:48:53.144Z,10.85
2017-09-25T04:49:35.253Z,10.92
2017-09-25T04:50:17.936Z,10.88
2017-09-25T04:51:00.324Z,10.86
2017-09-25T04:51:42.032Z,10.81
2017-09-25T04:52:22.546Z,10.78
2017-09-25T04:53:03.051Z,10.79
2017-09-25T04:53:43.572Z,10.78
2017-09-25T04:54:24.074Z,10.81
2017-09-25T04:55:04.597Z,10.78
2017-09-25T04:55:45.122Z,10.86
2017-09-25T04:56:25.650Z,10.76
2017-09-25T04:57:06.185Z,10.79
2017-09-25T04:57:46.725Z,10.73
2017-09-25T04:58:27.256Z,10.82
2017-09-25T04:59:07.801Z,10.82
2017-09-25T04:59:48.341Z,10.78
2017-09-25T05:00:28.860Z,10.68
2017-09-25T05:01:09.385Z,10.66
2017-09-25T05:01:49.913Z,10.67
2017-09-25T05:02:30.438Z,10.73
2017-09-25T05:03:10.958Z,10.68
2017-09-25T05:03:51.473Z,10.66
2017-09-25T05:04:31.992Z,10.67
2017-09-25T05:05:12.494Z,10.7
2017-09-25T05:05:53.008Z,10.73
2017-09-25T05:06:34.066Z,10.7
2017-09-25T05:07:14.609Z,10.74
2017-09-25T05:07:55.124Z,10.67
2017-09-25T05:08:35.653Z,10.64
2017-09-25T05:09:16.185Z,10.64
2017-09-25T05:09:56.688Z,10.71
2017-09-25T05:10:37.203Z,10.67
2017-09-25T05:11:17.740Z,10.7
2017-09-25T05:11:58.228Z,10.7
2017-09-25T05:12:38.753Z,10.68
2017-09-25T05:13:19.261Z,10.66
2017-09-25T05:13:59.786Z,10.67
2017-09-25T05:14:40.296Z,10.68
2017-09-25T05:15:20.817Z,10.79
2017-09-25T05:16:01.334Z,10.78
2017-09-25T05:16:41.835Z,10.73
2017-09-25T05:17:22.355Z,10.68
2017-09-25T05:18:02.869Z,10.76
2017-09-25T05:18:43.383Z,10.76
2017-09-25T05:19:23.897Z,10.67
2017-09-25T05:20:04.402Z,10.76
2017-09-25T05:20:44.914Z,10.74
2017-09-25T05:21:25.450Z,10.79
2017-09-25T05:22:05.973Z,10.82
2017-09-25T05:22:46.471Z,10.79
2017-09-25T05:23:27.001Z,10.78
2017-09-25T05:24:07.515Z,10.76
2017-09-25T05:24:48.033Z,10.78
2017-09-25T05:25:28.543Z,10.76
2017-09-25T05:26:09.063Z,10.85
2017-09-25T05:26:49.586Z,10.84
2017-09-25T05:27:30.090Z,10.74
2017-09-25T05:28:10.617Z,10.88
2017-09-25T05:28:51.139Z,10.86
2017-09-25T05:29:31.670Z,10.91
2017-09-25T05:30:12.201Z,10.84
2017-09-25T05:30:52.713Z,10.79
2017-09-25T05:31:33.228Z,10.81
2017-09-25T05:32:13.769Z,10.82
2017-09-25T05:32:54.296Z,10.84
2017-09-25T05:33:34.831Z,10.81
2017-09-25T05:34:15.353Z,10.86
2017-09-25T05:34:55.863Z,10.88
2017-09-25T05:35:36.386Z,10.82
2017-09-25T05:36:16.905Z,10.84
2017-09-25T05:36:57.417Z,10.85
2017-09-25T05:37:37.935Z,10.84
2017-09-25T05:38:18.422Z,10.89
2017-09-25T05:38:58.946Z,10.89
2017-09-25T05:39:39.467Z,10.92
2017-09-25T05:40:19.996Z,10.84
2017-09-25T05:41:00.536Z,10.82
2017-09-25T05:41:41.064Z,10.86
2017-09-25T05:42:21.603Z,10.79
2017-09-25T05:43:02.133Z,10.88
2017-09-25T05:43:42.656Z,10.82
2017-09-25T05:44:23.188Z,10.78
2017-09-25T05:45:03.723Z,10.84
2017-09-25T05:45:44.243Z,10.79
2017-09-25T05:46:24.765Z,10.91
2017-09-25T05:47:05.306Z,10.82
2017-09-25T05:47:45.834Z,10.78
2017-09-25T05:48:26.367Z,10.81
2017-09-25T05:49:06.898Z,10.7
2017-09-25T05:49:47.425Z,10.78
2017-09-25T05:50:27.928Z,10.79
2017-09-25T05:51:08.448Z,10.73
2017-09-25T05:51:48.967Z,10.74
2017-09-25T05:52:29.494Z,10.7
2017-09-25T05:53:10.019Z,10.74
2017-09-25T05:53:50.556Z,10.71
2017-09-25T05:54:31.084Z,10.68
2017-09-25T05:55:11.614Z,10.63
2017-09-25T05:55:52.138Z,10.74
2017-09-25T05:56:32.657Z,10.64
2017-09-25T05:57:13.183Z,10.64
2017-09-25T05:57:53.696Z,10.74
2017-09-25T05:58:34.214Z,10.68
2017-09-25T05:59:14.725Z,10.73
2017-09-25T05:59:55.237Z,10.73
2017-09-25T06:00:35.755Z,10.76
2017-09-25T06:01:16.305Z,10.74
2017-09-25T06:01:56.839Z,10.82
2017-09-25T06:02:37.347Z,10.78
2017-09-25T06:03:17.864Z,10.78
2017-09-25T06:03:58.401Z,10.81
2017-09-25T06:04:38.933Z,10.79
2017-09-25T06:05:19.450Z,10.74
2017-09-25T06:05:59.985Z,10.85
2017-09-25T06:06:40.530Z,10.79
2017-09-25T06:07:21.069Z,10.79
2017-09-25T06:08:01.598Z,10.85
2017-09-25T06:08:42.121Z,10.85
2017-09-25T06:09:22.636Z,10.82
2017-09-25T06:10:03.203Z,10.81
2017-09-25T06:10:43.715Z,10.85
2017-09-25T06:11:24.243Z,10.76
2017-09-25T06:12:04.758Z,10.85
2017-09-25T06:12:45.303Z,10.82
2017-09-25T06:13:25.840Z,10.85
2017-09-25T06:14:06.377Z,10.76
2017-09-25T06:14:46.921Z,10.86
2017-09-25T06:15:27.458Z,10.82
2017-09-25T06:16:07.990Z,10.79
2017-09-25T06:16:48.509Z,10.79
2017-09-25T06:17:29.041Z,10.84
2017-09-25T06:18:09.543Z,10.82
2017-09-25T06:18:50.063Z,10.84
2017-09-25T06:19:30.593Z,10.86
2017-09-25T06:20:11.114Z,10.85
2017-09-25T06:20:51.632Z,10.84
2017-09-25T06:21:32.156Z,10.85
2017-09-25T06:22:12.670Z,10.86
2017-09-25T06:22:53.177Z,10.88
2017-09-25T06:23:33.691Z,10.85
2017-09-25T06:24:14.290Z,10.81
2017-09-25T06:24:54.810Z,10.85
2017-09-25T06:25:35.341Z,10.84
2017-09-25T06:26:15.846Z,10.86
2017-09-25T06:26:56.370Z,10.96
2017-09-25T06:27:36.902Z,10.92
2017-09-25T06:28:17.439Z,10.91
2017-09-25T06:28:57.979Z,11.04
2017-09-25T06:29:38.516Z,11
2017-09-25T06:30:19.055Z,11.07
2017-09-25T06:30:59.584Z,11.07
2017-09-25T06:31:40.112Z,11.15
2017-09-25T06:32:20.646Z,11.1
2017-09-25T06:33:01.184Z,11.17
2017-09-25T06:33:41.719Z,11.09
2017-09-25T06:34:22.255Z,11.14
2017-09-25T06:35:02.787Z,11.19
2017-09-25T06:35:43.316Z,11.22
2017-09-25T06:36:23.900Z,11.22
2017-09-25T06:37:04.420Z,11.22
2017-09-25T06:37:44.958Z,11.29
2017-09-25T06:38:25.508Z,11.24
2017-09-25T06:39:06.055Z,11.25
2017-09-25T06:39:46.586Z,11.28
2017-09-25T06:40:27.105Z,11.37
2017-09-25T06:41:07.645Z,11.32
2017-09-25T06:41:48.173Z,11.39
2017-09-25T06:42:28.713Z,11.39
2017-09-25T06:43:09.254Z,11.37
2017-09-25T06:43:49.789Z,11.36
2017-09-25T06:44:30.333Z,11.37
2017-09-25T06:45:10.870Z,11.39
2017-09-25T06:45:51.401Z,11.42
2017-09-25T06:46:31.931Z,11.4
2017-09-25T06:47:12.450Z,11.43
2017-09-25T06:47:53.935Z,11.43
2017-09-25T06:48:34.469Z,11.52
2017-09-25T06:49:15.011Z,11.51
2017-09-25T06:49:55.525Z,11.52
2017-09-25T06:50:36.070Z,11.54
2017-09-25T06:51:16.590Z,11.52
2017-09-25T06:51:57.110Z,11.49
2017-09-25T06:52:37.636Z,11.51
2017-09-25T06:53:18.166Z,11.61
2017-09-25T06:53:58.680Z,11.65
2017-09-25T06:54:39.222Z,11.64
2017-09-25T06:55:19.734Z,11.75
2017-09-25T06:56:00.278Z,11.73
2017-09-25T06:56:40.834Z,11.78
2017-09-25T06:57:21.347Z,11.73
2017-09-25T06:58:01.888Z,11.8
2017-09-25T06:58:42.437Z,11.79
2017-09-25T06:59:22.971Z,11.75
2017-09-25T07:00:03.519Z,11.75
2017-09-25T07:00:44.050Z,11.73
2017-09-25T07:01:24.580Z,11.73
2017-09-25T07:02:05.110Z,11.83
2017-09-25T07:02:45.650Z,11.75
2017-09-25T07:03:26.188Z,11.8
2017-09-25T07:04:06.725Z,11.78
2017-09-25T07:04:47.266Z,11.88
2017-09-25T07:05:27.853Z,11.8
2017-09-25T07:06:08.392Z,11.73
2017-09-25T07:06:48.943Z,11.79
2017-09-25T07:07:29.493Z,11.83
2017-09-25T07:08:10.045Z,11.88
2017-09-25T07:08:50.572Z,11.88
2017-09-25T07:09:31.113Z,11.94
2017-09-25T07:10:11.653Z,12.07
2017-09-25T07:10:52.186Z,12.04
2017-09-25T07:11:32.724Z,12.04
2017-09-25T07:12:13.278Z,12.13
2017-09-25T07:12:53.803Z,12.19
2017-09-25T07:13:34.336Z,12.12
2017-09-25T07:14:14.872Z,12.17
2017-09-25T07:14:55.413Z,12.27
2017-09-25T07:15:35.947Z,12.23
2017-09-25T07:16:16.470Z,12.21
2017-09-25T07:16:57.011Z,12.34
2017-09-25T07:17:37.555Z,12.29
2017-09-25T07:18:18.110Z,12.35
2017-09-25T07:18:58.654Z,12.41
2017-09-25T07:19:39.190Z,12.45
2017-09-25T07:20:19.737Z,12.39
2017-09-25T07:21:00.287Z,12.5
2017-09-25T07:21:40.836Z,12.41
2017-09-25T07:22:21.385Z,12.46
2017-09-25T07:23:01.928Z,12.45
2017-09-25T07:23:42.452Z,12.5
2017-09-25T07:24:22.998Z,12.54
2017-09-25T07:25:03.534Z,12.65
2017-09-25T07:25:44.073Z,12.6
2017-09-25T07:26:24.618Z,12.6
2017-09-25T07:27:05.150Z,12.65
2017-09-25T07:27:45.691Z,12.68
2017-09-25T07:28:26.235Z,12.71
2017-09-25T07:29:06.782Z,12.71
2017-09-25T07:29:47.312Z,12.75
2017-09-25T07:30:27.839Z,12.64
2017-09-25T07:31:08.390Z,12.68
2017-09-25T07:31:48.931Z,12.77
2017-09-25T07:32:29.468Z,12.87
2017-09-25T07:33:10.010Z,12.82
2017-09-25T07:33:50.565Z,12.77
2017-09-25T07:34:31.098Z,12.79
2017-09-25T07:35:11.644Z,12.86
2017-09-25T07:35:52.164Z,12.92
2017-09-25T07:36:32.694Z,12.86
2017-09-25T07:37:13.231Z,12.86
2017-09-25T07:37:53.774Z,12.86
2017-09-25T07:38:34.299Z,12.85
2017-09-25T07:39:14.824Z,12.9
2017-09-25T07:39:55.346Z,12.86
2017-09-25T07:40:35.886Z,12.86
2017-09-25T07:41:16.434Z,12.82
2017-09-25T07:41:56.967Z,12.78
2017-09-25T07:42:37.509Z,12.68
2017-09-25T07:43:18.057Z,12.7
2017-09-25T07:45:17.548Z,12.68
2017-09-25T07:45:58.083Z,12.71
2017-09-25T07:46:38.615Z,12.7
2017-09-25T07:47:19.152Z,12.72
2017-09-25T07:47:59.685Z,12.67
2017-09-25T07:48:40.228Z,12.65
2017-09-25T07:49:20.758Z,12.72
2017-09-25T07:50:01.288Z,12.67
2017-09-25T07:50:41.818Z,12.78
2017-09-25T07:51:22.354Z,12.78
2017-09-25T07:52:02.869Z,12.77
2017-09-25T07:52:43.383Z,12.78
2017-09-25T07:53:23.906Z,12.85
2017-09-25T07:54:04.424Z,12.97
2017-09-25T07:54:44.936Z,12.92
2017-09-25T07:55:25.462Z,12.93
2017-09-25T07:56:05.976Z,12.9
2017-09-25T07:56:46.513Z,13.03
2017-09-25T07:57:27.052Z,13.01
2017-09-25T07:58:07.570Z,13.04
2017-09-25T07:58:48.098Z,13.07
2017-09-25T07:59:28.633Z,13.08
2017-09-25T08:00:09.171Z,13.11
2017-09-25T08:00:49.702Z,13.23
2017-09-25T08:01:30.230Z,13.14
2017-09-25T08:02:10.779Z,13.19
2017-09-25T08:02:51.325Z,13.22
2017-09-25T08:03:31.830Z,13.25
2017-09-25T08:04:12.357Z,13.26
2017-09-25T08:04:52.878Z,13.3
2017-09-25T08:05:33.412Z,13.32
2017-09-25T08:06:13.937Z,13.32
2017-09-25T08:06:54.465Z,13.39
2017-09-25T08:07:34.989Z,13.46
2017-09-25T08:08:15.540Z,13.39
2017-09-25T08:08:56.045Z,13.54
2017-09-25T08:09:36.567Z,13.52
2017-09-25T08:10:17.093Z,13.57
2017-09-25T08:10:57.633Z,13.66
2017-09-25T08:11:38.163Z,13.67
2017-09-25T08:12:18.765Z,13.75
2017-09-25T08:12:59.290Z,13.7
2017-09-25T08:13:39.830Z,13.67
2017-09-25T08:14:20.374Z,13.77
2017-09-25T08:15:00.922Z,13.67
2017-09-25T08:15:42.941Z,13.71
2017-09-25T08:16:24.858Z,13.73
2017-09-25T08:17:05.396Z,13.73
2017-09-25T08:17:45.919Z,13.7
2017-09-25T08:18:26.460Z,13.79
2017-09-25T08:19:06.994Z,13.67
2017-09-25T08:19:47.536Z,13.81
2017-09-25T08:20:28.071Z,13.82
2017-09-25T08:21:08.619Z,13.79
2017-09-25T08:21:49.157Z,13.92
2017-09-25T08:22:29.697Z,13.96
2017-09-25T08:23:10.227Z,14.02
2017-09-25T08:23:50.761Z,14.04
2017-09-25T08:24:31.336Z,14.1
2017-09-25T08:25:11.865Z,14.2
2017-09-25T08:25:52.384Z,14.22
2017-09-25T08:26:32.912Z,14.2
2017-09-25T08:27:13.449Z,14.28
2017-09-25T08:27:53.983Z,14.36
2017-09-25T08:28:34.528Z,14.42
2017-09-25T08:29:15.080Z,14.5
2017-09-25T08:29:55.591Z,14.52
2017-09-25T08:30:36.158Z,14.6
2017-09-25T08:31:16.659Z,14.61
2017-09-25T08:31:57.195Z,14.68
2017-09-25T08:32:37.728Z,14.78
2017-09-25T08:33:18.264Z,14.8
2017-09-25T08:33:58.784Z,14.88
2017-09-25T08:34:39.312Z,14.91
2017-09-25T08:35:19.827Z,14.88
2017-09-25T08:36:00.357Z,14.96
2017-09-25T08:36:40.880Z,14.92
2017-09-25T08:37:21.412Z,14.95
2017-09-25T08:38:01.927Z,14.98
2017-09-25T08:38:42.454Z,14.91
2017-09-25T08:39:23.006Z,14.99
2017-09-25T08:40:03.506Z,14.92
2017-09-25T08:40:44.061Z,14.98
2017-09-25T08:41:24.553Z,14.92
2017-09-25T08:42:05.073Z,14.92
2017-09-25T08:42:45.610Z,15.01
2017-09-25T08:43:26.164Z,15.03
2017-09-25T08:44:06.698Z,15.06
2017-09-25T08:44:47.231Z,15.07
2017-09-25T08:45:27.755Z,15.14